createdAt,value
2023-01-15T00:00:16.366Z,24.20
2023-01-15T00:02:46.617Z,24.30
2023-01-15T00:05:17.240Z,24.30
2023-01-15T00:07:47.533Z,24.30
2023-01-15T00:10:18.090Z,24.30
2023-01-15T00:12:48.288Z,24.30
2023-01-15T00:15:18.572Z,24.30
2023-01-15T00:17:48.871Z,24.40
2023-01-15T00:20:19.256Z,24.30
2023-01-15T00:22:49.502Z,24.40
2023-01-15T00:25:37.854Z,24.40
2023-01-15T00:28:08.198Z,24.30
2023-01-15T00:30:42.044Z,24.40
2023-01-15T00:33:12.959Z,24.40
2023-01-15T00:35:43.445Z,24.40
2023-01-15T00:38:13.973Z,24.40
2023-01-15T00:40:44.163Z,24.40
2023-01-15T00:43:14.652Z,24.40
2023-01-15T00:45:45.002Z,24.40
2023-01-15T00:48:15.354Z,24.40
2023-01-15T00:50:45.788Z,24.50
2023-01-15T00:53:16.099Z,24.50
2023-01-15T00:55:47.204Z,24.50
2023-01-15T00:58:17.445Z,24.50
2023-01-15T01:00:47.859Z,24.50
2023-01-15T01:03:18.156Z,24.50
2023-01-15T01:05:48.466Z,24.50
2023-01-15T01:08:29.705Z,24.50
2023-01-15T01:11:11.743Z,24.50
2023-01-15T01:13:42.430Z,24.50
2023-01-15T01:16:24.799Z,24.50
2023-01-15T01:18:55.963Z,24.60
2023-01-15T01:21:27.547Z,24.60
2023-01-15T01:23:57.894Z,24.60
2023-01-15T01:26:28.689Z,24.60
2023-01-15T01:28:59.533Z,24.60
2023-01-15T01:31:29.924Z,24.60
2023-01-15T01:34:01.711Z,24.60
2023-01-15T01:36:35.198Z,24.60
2023-01-15T01:39:06.745Z,24.60
2023-01-15T01:41:37.570Z,24.60
2023-01-15T01:44:29.973Z,24.70
2023-01-15T01:47:01.541Z,24.70
2023-01-15T01:49:32.534Z,24.70
2023-01-15T01:52:08.533Z,24.70
2023-01-15T01:54:40.368Z,24.70
2023-01-15T01:57:12.445Z,24.70
2023-01-15T01:59:43.073Z,24.70
2023-01-15T02:02:13.927Z,24.70
2023-01-15T02:04:44.925Z,24.80
2023-01-15T02:07:16.126Z,24.80
2023-01-15T02:09:46.472Z,24.80
2023-01-15T02:12:38.688Z,24.80
2023-01-15T02:15:20.279Z,24.80
2023-01-15T02:18:11.614Z,24.80
2023-01-15T02:20:48.778Z,24.80
2023-01-15T02:23:30.999Z,24.80
2023-01-15T02:26:34.608Z,24.90
2023-01-15T02:29:08.152Z,24.90
2023-01-15T02:31:47.753Z,24.90
2023-01-15T02:34:39.928Z,24.90
2023-01-15T02:37:16.853Z,24.90
2023-01-15T02:39:50.284Z,24.90
2023-01-15T02:42:22.329Z,24.90
2023-01-15T02:44:55.454Z,25.00
2023-01-15T02:47:31.542Z,25.00
2023-01-15T02:50:06.901Z,25.00
2023-01-15T02:52:51.428Z,25.00
2023-01-15T02:55:34.281Z,25.00
2023-01-15T02:58:09.982Z,25.00
2023-01-15T03:00:46.120Z,25.10
2023-01-15T03:03:40.163Z,25.10
2023-01-15T03:06:50.602Z,25.10
2023-01-15T03:09:21.592Z,25.10
2023-01-15T03:12:12.819Z,25.10
2023-01-15T03:15:13.743Z,25.10
2023-01-15T03:17:58.211Z,25.20
2023-01-15T03:20:31.515Z,25.20
2023-01-15T03:23:10.930Z,25.20
2023-01-15T03:25:50.044Z,25.20
2023-01-15T03:28:31.680Z,25.20
2023-01-15T03:31:02.194Z,25.30
2023-01-15T03:33:33.383Z,25.30
2023-01-15T03:36:04.575Z,25.30
2023-01-15T03:38:40.873Z,25.30
2023-01-15T03:41:34.334Z,25.40
2023-01-15T03:44:34.734Z,25.40
2023-01-15T03:47:26.289Z,25.40
2023-01-15T03:50:14.658Z,25.40
2023-01-15T03:53:08.696Z,25.50
2023-01-15T03:55:57.182Z,25.50
2023-01-15T03:58:46.191Z,25.50
2023-01-15T04:01:24.280Z,25.50
2023-01-15T04:03:56.468Z,25.50
2023-01-15T04:06:29.177Z,25.50
2023-01-15T04:09:00.221Z,25.60
2023-01-15T04:11:30.489Z,25.50
2023-01-15T04:14:00.762Z,25.60
2023-01-15T04:16:34.903Z,25.60
2023-01-15T04:19:05.603Z,25.60
2023-01-15T04:21:35.988Z,25.70
2023-01-15T04:24:06.288Z,25.70
2023-01-15T04:26:36.566Z,25.70
2023-01-15T04:29:06.952Z,25.70
2023-01-15T04:31:37.942Z,25.80
2023-01-15T04:34:08.542Z,25.80
2023-01-15T04:36:38.799Z,25.80
2023-01-15T04:39:09.154Z,25.80
2023-01-15T04:42:17.343Z,25.90
2023-01-15T04:44:47.623Z,25.90
2023-01-15T04:47:17.841Z,25.90
2023-01-15T04:49:48.056Z,26.00
2023-01-15T04:52:18.560Z,26.00
2023-01-15T04:54:48.855Z,26.00
2023-01-15T04:57:19.097Z,26.10
2023-01-15T04:59:49.369Z,26.10
2023-01-15T05:02:19.881Z,26.10
2023-01-15T05:04:50.301Z,26.20
2023-01-15T05:07:21.577Z,26.20
2023-01-15T05:09:54.384Z,26.30
2023-01-15T05:12:24.752Z,26.30
2023-01-15T05:14:55.235Z,26.30
2023-01-15T05:17:25.456Z,26.30
2023-01-15T05:19:55.669Z,26.30
2023-01-15T05:22:25.849Z,26.40
2023-01-15T05:24:56.060Z,26.40
2023-01-15T05:27:26.388Z,26.40
2023-01-15T05:29:56.692Z,26.40
2023-01-15T05:32:26.923Z,26.40
2023-01-15T05:34:57.143Z,26.50
2023-01-15T05:37:27.339Z,26.50
2023-01-15T05:39:57.591Z,26.50
2023-01-15T05:42:27.763Z,26.50
2023-01-15T05:44:57.962Z,26.50
2023-01-15T05:47:28.266Z,26.50
2023-01-15T05:49:58.480Z,26.50
2023-01-15T05:52:28.721Z,26.60
2023-01-15T05:54:59.326Z,26.60
2023-01-15T05:57:29.597Z,26.60
2023-01-15T05:59:59.875Z,26.60
2023-01-15T06:02:30.119Z,26.60
2023-01-15T06:05:07.525Z,26.60
2023-01-15T06:07:37.733Z,26.70
2023-01-15T06:10:08.781Z,26.70
2023-01-15T06:12:39.322Z,26.60
2023-01-15T06:15:13.783Z,26.70
2023-01-15T06:17:44.060Z,26.60
2023-01-15T06:20:14.699Z,26.70
2023-01-15T06:22:44.884Z,26.70
2023-01-15T06:25:16.121Z,26.70
2023-01-15T06:27:46.439Z,26.70
2023-01-15T06:30:17.305Z,26.70
2023-01-15T06:32:47.476Z,26.70
2023-01-15T06:35:17.695Z,26.70
2023-01-15T06:37:48.005Z,26.40
2023-01-15T06:40:18.569Z,26.10
2023-01-15T06:43:07.085Z,25.80
2023-01-15T06:45:59.991Z,25.60
2023-01-15T06:48:30.677Z,25.60
2023-01-15T06:51:01.360Z,25.60
2023-01-15T06:53:31.662Z,25.50
2023-01-15T06:56:03.463Z,25.50
2023-01-15T06:58:34.755Z,25.50
2023-01-15T07:01:13.748Z,25.50
2023-01-15T07:03:44.494Z,25.60
2023-01-15T07:06:16.028Z,25.70
2023-01-15T07:08:46.286Z,25.80
2023-01-15T07:11:17.082Z,25.80
2023-01-15T07:13:47.348Z,25.90
2023-01-15T07:16:30.230Z,25.90
2023-01-15T07:19:00.547Z,26.00
2023-01-15T07:21:31.215Z,26.00
2023-01-15T07:24:04.686Z,26.00
2023-01-15T07:26:35.452Z,25.90
2023-01-15T07:29:07.121Z,25.80
2023-01-15T07:31:37.807Z,25.80
2023-01-15T07:34:08.401Z,25.70
2023-01-15T07:36:40.011Z,25.60
2023-01-15T07:39:12.730Z,25.60
2023-01-15T07:42:01.364Z,25.50
2023-01-15T07:44:49.419Z,25.50
2023-01-15T07:47:44.141Z,25.50
2023-01-15T07:50:17.684Z,25.40
2023-01-15T07:52:48.313Z,25.40
2023-01-15T07:55:18.879Z,25.30
2023-01-15T07:57:49.227Z,25.30
2023-01-15T08:00:24.266Z,25.40
2023-01-15T08:02:54.797Z,25.40
2023-01-15T08:05:25.025Z,25.40
2023-01-15T08:07:55.492Z,25.40
2023-01-15T08:10:27.015Z,25.40
2023-01-15T08:13:15.317Z,25.40
2023-01-15T08:15:45.649Z,25.40
2023-01-15T08:18:15.940Z,25.40
2023-01-15T08:20:47.359Z,25.30
2023-01-15T08:23:17.670Z,25.30
2023-01-15T08:25:47.873Z,25.30
2023-01-15T08:28:18.101Z,25.30
2023-01-15T08:30:48.291Z,25.30
2023-01-15T08:33:18.652Z,25.30
2023-01-15T08:35:48.909Z,25.30
2023-01-15T08:38:20.933Z,25.30
2023-01-15T08:41:03.923Z,25.30
2023-01-15T08:43:35.401Z,25.30
2023-01-15T08:46:07.536Z,25.30
2023-01-15T08:48:38.054Z,25.30
2023-01-15T08:51:10.589Z,25.30
2023-01-15T08:53:41.483Z,25.30
2023-01-15T08:56:19.992Z,25.20
2023-01-15T08:58:50.668Z,25.20
2023-01-15T09:01:21.039Z,25.20
2023-01-15T09:03:51.466Z,25.20
2023-01-15T09:06:21.698Z,25.20
2023-01-15T09:08:52.439Z,25.20
2023-01-15T09:11:22.736Z,25.20
2023-01-15T09:13:53.433Z,25.20
2023-01-15T09:16:23.830Z,25.20
2023-01-15T09:18:54.867Z,25.20
2023-01-15T09:21:25.182Z,25.20
2023-01-15T09:23:55.450Z,25.20
2023-01-15T09:26:36.057Z,25.10
2023-01-15T09:29:08.282Z,25.00
2023-01-15T09:31:38.684Z,25.00
2023-01-15T09:34:08.953Z,25.00
2023-01-15T09:36:40.540Z,24.90
2023-01-15T09:39:12.142Z,24.90
2023-01-15T09:42:14.484Z,24.90
2023-01-15T09:44:59.743Z,24.90
2023-01-15T09:47:37.099Z,24.90
2023-01-15T09:50:19.599Z,24.90
2023-01-15T09:52:52.896Z,24.90
2023-01-15T09:55:34.994Z,24.90
2023-01-15T09:58:08.329Z,25.00
2023-01-15T10:00:46.079Z,25.00
2023-01-15T10:03:32.204Z,25.00
2023-01-15T10:06:13.274Z,25.00
2023-01-15T10:08:53.546Z,25.00
2023-01-15T10:11:55.376Z,25.10
2023-01-15T10:14:58.051Z,25.10
2023-01-15T10:17:48.519Z,25.10
2023-01-15T10:20:47.015Z,25.10
2023-01-15T10:23:36.621Z,25.10
2023-01-15T10:26:20.834Z,25.10
2023-01-15T10:29:15.108Z,25.10
2023-01-15T10:31:55.408Z,25.10
2023-01-15T10:34:51.831Z,25.10
2023-01-15T10:37:48.043Z,25.10
2023-01-15T10:40:19.055Z,25.10
2023-01-15T10:43:16.537Z,25.10
2023-01-15T10:46:05.988Z,25.10
2023-01-15T10:48:45.207Z,25.10
2023-01-15T10:51:26.132Z,25.10
2023-01-15T10:54:27.604Z,25.10
2023-01-15T10:57:13.795Z,25.10
2023-01-15T10:59:50.998Z,25.10
2023-01-15T11:02:40.279Z,25.10
2023-01-15T11:05:19.615Z,25.20
2023-01-15T11:08:24.756Z,25.20
2023-01-15T11:10:45.059Z,25.20
2023-01-15T11:13:43.646Z,25.20
2023-01-15T11:16:44.791Z,25.20
2023-01-15T11:19:41.708Z,25.20
2023-01-15T11:22:15.292Z,25.20
2023-01-15T11:24:56.556Z,25.20
2023-01-15T11:27:35.257Z,25.20
2023-01-15T11:30:09.197Z,25.20
2023-01-15T11:32:40.464Z,25.20
2023-01-15T11:35:21.714Z,25.20
2023-01-15T11:37:52.046Z,25.20
2023-01-15T11:40:27.545Z,25.20
2023-01-15T11:43:15.575Z,25.20
2023-01-15T11:46:11.983Z,25.20
2023-01-15T11:49:08.190Z,25.20
2023-01-15T11:51:44.647Z,25.20
2023-01-15T11:54:17.421Z,25.20
2023-01-15T11:56:49.159Z,25.20
2023-01-15T11:59:22.524Z,25.20
2023-01-15T12:02:01.877Z,25.20
2023-01-15T12:04:48.588Z,25.20
2023-01-15T12:07:20.768Z,25.20
2023-01-15T12:10:15.131Z,25.20
2023-01-15T12:13:14.377Z,25.20
2023-01-15T12:15:56.795Z,25.20
2023-01-15T12:19:06.073Z,25.10
2023-01-15T12:22:09.940Z,25.20
2023-01-15T12:24:49.139Z,25.20
2023-01-15T12:27:51.056Z,25.10
2023-01-15T12:30:40.810Z,25.10
2023-01-15T12:33:15.347Z,25.10
2023-01-15T12:35:51.228Z,25.10
2023-01-15T12:38:48.500Z,25.10
2023-01-15T12:42:15.462Z,25.10
2023-01-15T12:45:03.454Z,25.20
2023-01-15T12:47:42.810Z,25.10
2023-01-15T12:50:27.194Z,25.10
2023-01-15T12:53:27.093Z,25.10
2023-01-15T12:56:40.061Z,25.10
2023-01-15T12:59:33.239Z,25.10
2023-01-15T13:02:26.374Z,25.10
2023-01-15T13:05:15.174Z,25.10
2023-01-15T13:08:06.563Z,25.10
2023-01-15T13:10:38.220Z,25.10
2023-01-15T13:13:39.660Z,25.10
2023-01-15T13:16:09.951Z,25.10
2023-01-15T13:19:14.101Z,25.10
2023-01-15T13:21:46.106Z,25.10
2023-01-15T13:24:28.099Z,25.10
2023-01-15T13:27:34.321Z,25.10
2023-01-15T13:30:24.304Z,25.10
2023-01-15T13:32:58.267Z,25.10
2023-01-15T13:35:46.437Z,25.00
2023-01-15T13:38:25.670Z,25.10
2023-01-15T13:40:58.655Z,25.10
2023-01-15T13:43:41.860Z,25.00
2023-01-15T13:46:21.764Z,25.10
2023-01-15T13:48:53.513Z,25.00
2023-01-15T13:51:31.695Z,25.00
2023-01-15T13:54:03.789Z,25.10
2023-01-15T13:56:38.701Z,25.00
2023-01-15T13:59:29.980Z,25.00
2023-01-15T14:02:00.208Z,25.00
2023-01-15T14:04:40.072Z,25.00
2023-01-15T14:07:25.130Z,25.00
2023-01-15T14:09:55.496Z,25.00
2023-01-15T14:12:58.678Z,25.00
2023-01-15T14:15:32.148Z,25.00
2023-01-15T14:18:15.295Z,25.00
2023-01-15T14:20:58.404Z,25.00
2023-01-15T14:24:05.024Z,25.00
2023-01-15T14:26:38.367Z,25.00
2023-01-15T14:29:28.955Z,24.90
2023-01-15T14:32:05.519Z,25.00
2023-01-15T14:34:38.288Z,24.90
2023-01-15T14:37:31.799Z,24.90
2023-01-15T14:40:07.639Z,24.90
2023-01-15T14:43:00.982Z,24.90
2023-01-15T14:45:38.824Z,24.90
2023-01-15T14:48:30.190Z,24.90
2023-01-15T14:51:27.024Z,24.90
2023-01-15T14:54:06.234Z,24.90
2023-01-15T14:56:58.480Z,24.90
2023-01-15T14:59:40.820Z,24.90
2023-01-15T15:02:27.133Z,24.90
2023-01-15T15:05:00.443Z,24.90
2023-01-15T15:07:39.065Z,24.90
2023-01-15T15:10:41.984Z,24.90
2023-01-15T15:13:41.837Z,24.90
2023-01-15T15:16:30.667Z,24.90
2023-01-15T15:19:07.288Z,24.90
2023-01-15T15:21:42.667Z,24.90
2023-01-15T15:24:35.061Z,24.90
2023-01-15T15:27:22.914Z,24.90
2023-01-15T15:29:53.872Z,24.90
2023-01-15T15:32:26.999Z,24.80
2023-01-15T15:34:58.762Z,24.80
2023-01-15T15:37:31.603Z,24.80
2023-01-15T15:40:04.731Z,24.80
2023-01-15T15:43:03.547Z,24.80
2023-01-15T15:45:51.928Z,24.80
2023-01-15T15:48:54.907Z,24.80
2023-01-15T15:51:28.004Z,24.80
2023-01-15T15:54:19.955Z,24.80
2023-01-15T15:57:08.552Z,24.80
2023-01-15T15:59:50.171Z,24.80
2023-01-15T16:02:38.177Z,24.80
2023-01-15T16:05:31.039Z,24.80
2023-01-15T16:08:22.089Z,24.80
2023-01-15T16:11:01.877Z,24.70
2023-01-15T16:13:49.635Z,24.70
2023-01-15T16:16:21.895Z,24.70
2023-01-15T16:18:55.318Z,24.70
2023-01-15T16:21:30.311Z,24.70
2023-01-15T16:24:04.398Z,24.70
2023-01-15T16:26:37.413Z,24.70
2023-01-15T16:29:17.582Z,24.70
2023-01-15T16:31:48.090Z,24.70
2023-01-15T16:34:31.738Z,24.70
2023-01-15T16:37:03.228Z,24.70
2023-01-15T16:39:41.831Z,24.70
2023-01-15T16:42:28.964Z,24.70
2023-01-15T16:45:03.663Z,24.70
2023-01-15T16:47:38.420Z,24.70
2023-01-15T16:50:30.791Z,24.70
2023-01-15T16:53:03.709Z,24.70
2023-01-15T16:55:48.714Z,24.60
2023-01-15T16:58:24.296Z,24.70
2023-01-15T17:00:57.512Z,24.70
2023-01-15T17:03:32.468Z,24.60
2023-01-15T17:06:15.135Z,24.60
2023-01-15T17:08:51.416Z,24.70
2023-01-15T17:11:24.723Z,24.60
2023-01-15T17:14:13.203Z,24.60
2023-01-15T17:16:43.564Z,24.60
2023-01-15T17:19:14.038Z,24.60
2023-01-15T17:21:48.781Z,24.60
2023-01-15T17:24:19.298Z,24.60
2023-01-15T17:26:49.508Z,24.60
2023-01-15T17:29:19.777Z,24.60
2023-01-15T17:31:50.040Z,24.60
2023-01-15T17:34:25.211Z,24.60
2023-01-15T17:36:59.186Z,24.50
2023-01-15T17:39:29.475Z,24.60
2023-01-15T17:41:59.981Z,24.50
2023-01-15T17:44:30.574Z,24.60
2023-01-15T17:47:00.798Z,24.50
2023-01-15T17:49:31.236Z,24.50
2023-01-15T17:52:03.444Z,24.50
2023-01-15T17:54:51.660Z,24.50
2023-01-15T17:57:39.733Z,24.50
2023-01-15T18:00:29.712Z,24.50
2023-01-15T18:03:17.894Z,24.50
2023-01-15T18:05:50.648Z,24.50
2023-01-15T18:08:29.457Z,24.50
2023-01-15T18:10:59.885Z,24.50
2023-01-15T18:13:30.083Z,24.50
2023-01-15T18:16:00.938Z,24.50
2023-01-15T18:18:31.334Z,24.50
2023-01-15T18:21:03.714Z,24.50
2023-01-15T18:23:41.068Z,24.50
2023-01-15T18:26:11.967Z,24.50
2023-01-15T18:28:42.526Z,24.40
2023-01-15T18:31:13.189Z,24.40
2023-01-15T18:33:43.839Z,24.40
2023-01-15T18:36:16.199Z,24.40
2023-01-15T18:38:47.821Z,24.40
2023-01-15T18:41:37.424Z,24.40
2023-01-15T18:44:37.432Z,24.40
2023-01-15T18:47:11.799Z,24.40
2023-01-15T18:49:43.779Z,24.40
2023-01-15T18:52:33.718Z,24.40
2023-01-15T18:55:04.756Z,24.40
2023-01-15T18:57:36.362Z,24.30
2023-01-15T19:00:07.382Z,24.30
2023-01-15T19:02:38.354Z,24.30
2023-01-15T19:05:09.058Z,24.40
2023-01-15T19:07:39.404Z,24.40
2023-01-15T19:10:10.243Z,24.40
2023-01-15T19:12:41.505Z,24.30
2023-01-15T19:15:32.400Z,24.30
2023-01-15T19:18:20.500Z,24.30
2023-01-15T19:20:51.088Z,24.30
2023-01-15T19:23:23.399Z,24.30
2023-01-15T19:25:53.596Z,24.30
2023-01-15T19:28:24.271Z,24.30
2023-01-15T19:31:12.486Z,24.30
2023-01-15T19:33:42.884Z,24.30
2023-01-15T19:36:13.207Z,24.30
2023-01-15T19:38:43.649Z,24.30
2023-01-15T19:41:34.983Z,24.30
2023-01-15T19:44:26.410Z,24.30
2023-01-15T19:47:14.825Z,24.30
2023-01-15T19:50:03.466Z,24.30
2023-01-15T19:52:36.461Z,24.30
2023-01-15T19:55:10.104Z,24.30
2023-01-15T19:57:41.113Z,24.30
2023-01-15T20:00:14.545Z,24.30
2023-01-15T20:02:46.406Z,24.30
2023-01-15T20:05:18.090Z,24.30
2023-01-15T20:07:48.465Z,24.30
2023-01-15T20:10:24.092Z,24.30
2023-01-15T20:13:12.584Z,24.20
2023-01-15T20:15:45.715Z,24.30
2023-01-15T20:18:16.246Z,24.20
2023-01-15T20:20:46.634Z,24.20
2023-01-15T20:23:16.978Z,24.20
2023-01-15T20:25:51.814Z,24.20
2023-01-15T20:28:22.767Z,24.20
2023-01-15T20:30:55.192Z,24.20
2023-01-15T20:33:25.677Z,24.20
2023-01-15T20:35:56.403Z,24.20
2023-01-15T20:38:29.655Z,24.20
2023-01-15T20:41:22.506Z,24.20
2023-01-15T20:44:10.815Z,24.20
2023-01-15T20:46:41.259Z,24.20
2023-01-15T20:49:26.642Z,24.10
2023-01-15T20:51:58.842Z,24.10
2023-01-15T20:54:29.284Z,24.10
2023-01-15T20:56:59.749Z,24.20
2023-01-15T20:59:30.011Z,24.10
2023-01-15T21:02:00.357Z,24.20
2023-01-15T21:04:31.652Z,24.10
2023-01-15T21:07:01.932Z,24.10
2023-01-15T21:09:33.193Z,24.10
2023-01-15T21:12:03.419Z,24.10
2023-01-15T21:14:33.741Z,24.10
2023-01-15T21:17:04.025Z,24.10
2023-01-15T21:19:34.676Z,24.20
2023-01-15T21:22:05.287Z,24.10
2023-01-15T21:24:36.680Z,24.10
2023-01-15T21:27:07.035Z,24.10
2023-01-15T21:29:37.248Z,24.10
2023-01-15T21:32:07.592Z,24.10
2023-01-15T21:34:37.876Z,24.10
2023-01-15T21:37:08.137Z,24.10
2023-01-15T21:39:40.271Z,24.10
2023-01-15T21:42:34.291Z,24.10
2023-01-15T21:45:06.494Z,24.10
2023-01-15T21:47:38.605Z,24.10
2023-01-15T21:50:09.229Z,24.10
2023-01-15T21:52:39.808Z,24.10
2023-01-15T21:55:10.764Z,24.10
2023-01-15T21:57:41.158Z,24.10
2023-01-15T22:00:13.021Z,24.10
2023-01-15T22:02:43.299Z,24.10
2023-01-15T22:05:13.611Z,24.10
2023-01-15T22:07:43.808Z,24.10
2023-01-15T22:10:14.200Z,24.10
2023-01-15T22:12:44.831Z,24.10
2023-01-15T22:15:17.341Z,24.10
2023-01-15T22:17:47.561Z,24.10
2023-01-15T22:20:17.822Z,24.10
2023-01-15T22:22:48.196Z,24.10
2023-01-15T22:25:18.560Z,24.10
2023-01-15T22:27:48.769Z,24.10
2023-01-15T22:30:19.079Z,24.10
2023-01-15T22:32:51.362Z,24.20
2023-01-15T22:35:21.984Z,24.20
2023-01-15T22:37:52.153Z,24.10
2023-01-15T22:40:22.356Z,24.20
2023-01-15T22:42:55.250Z,24.20
2023-01-15T22:45:26.838Z,24.20
2023-01-15T22:47:57.036Z,24.20
2023-01-15T22:50:27.194Z,24.20
2023-01-15T22:52:58.133Z,24.20
2023-01-15T22:55:28.367Z,24.20
2023-01-15T22:57:58.875Z,24.30
2023-01-15T23:00:29.078Z,24.30
2023-01-15T23:03:06.810Z,24.30
2023-01-15T23:05:40.631Z,24.30
2023-01-15T23:08:11.349Z,24.30
2023-01-15T23:10:47.414Z,24.30
2023-01-15T23:13:17.905Z,24.30
2023-01-15T23:15:48.208Z,24.30
2023-01-15T23:18:18.391Z,24.30
2023-01-15T23:20:48.638Z,24.40
2023-01-15T23:23:18.896Z,24.40
2023-01-15T23:25:49.136Z,24.40
2023-01-15T23:28:19.507Z,24.40
2023-01-15T23:30:49.790Z,24.40
2023-01-15T23:33:20.051Z,24.40
2023-01-15T23:35:50.227Z,24.40
2023-01-15T23:38:29.839Z,24.40
2023-01-15T23:41:00.113Z,24.50
2023-01-15T23:43:48.629Z,24.50
2023-01-15T23:46:37.200Z,24.50
2023-01-15T23:49:12.411Z,24.50
2023-01-15T23:51:42.587Z,24.50
2023-01-15T23:54:14.453Z,24.50
2023-01-15T23:56:44.728Z,24.50
2023-01-15T23:59:15.087Z,24.50
